Sao Vicente Island, Sao Vicente Cesaria Evora Airport (GVSV)

NameSao Vicente Cesaria Evora Airport
CitySao Vicente Island
CountryCape Verde
ICAOGVSV
IATAVXE
Altitude20 m
CoordinatesGoogle Map
Live Air TrafficLiveATC.net
METARGVSV 251700Z 06024KT 9999 SCT024 SCT200 26/14 Q1015 NOSIG
2020-04-25 17:00:00 Wind: Northeast (60°) 12.35 m/s - Visibility: > 10000 m - Temperature: 26 °C - Dew point: 14 °C - Humidity: 47.6% - Pressure: 1015 hPa

Sorry, no flights used the airport in this database.